Time;durP1;ratioP1;P1;durP2;ratioP2;P2;SDS_P1;SDS_P2;PMS_P1;PMS_P2;Temp;Humidity;BMP_temperature;BMP_pressure;BME280_temperature;BME280_humidity;BME280_pressure;Samples;Min_cycle;Max_cycle;Signal;HPM_P1;HPM_P2
2023/04/07 00:00:56;;;;;;;25.27;14.83;;;8.40;66.00;;;;;;6216752;23;20012;-68
2023/04/07 00:03:22;;;;;;;19.30;13.77;;;8.30;65.70;;;;;;6216385;23;19997;-68
2023/04/07 00:05:48;;;;;;;19.80;12.40;;;8.30;65.90;;;;;;6216525;23;20091;-68
2023/04/07 00:08:14;;;;;;;24.73;13.50;;;8.30;65.60;;;;;;6216484;23;20023;-68
2023/04/07 00:10:40;;;;;;;32.57;18.67;;;8.20;65.70;;;;;;6216305;23;20011;-69
2023/04/07 00:13:06;;;;;;;170.37;86.23;;;8.20;65.90;;;;;;6216416;23;20000;-68
2023/04/07 00:15:32;;;;;;;523.40;289.80;;;8.20;65.60;;;;;;6216419;23;20047;-68
2023/04/07 00:17:58;;;;;;;126.10;77.83;;;8.20;64.90;;;;;;6216311;23;20067;-67
2023/04/07 00:20:24;;;;;;;53.87;32.20;;;8.20;65.30;;;;;;6216525;23;20087;-68
2023/04/07 00:22:49;;;;;;;37.40;24.13;;;8.20;65.70;;;;;;6216673;23;20063;-67
2023/04/07 00:25:15;;;;;;;46.77;26.83;;;8.10;65.60;;;;;;6216071;23;20076;-67
2023/04/07 00:27:41;;;;;;;35.57;20.70;;;8.10;65.60;;;;;;6216107;23;19996;-68
2023/04/07 00:30:07;;;;;;;32.50;23.10;;;8.00;66.00;;;;;;6216558;23;20000;-68
2023/04/07 00:32:33;;;;;;;39.43;22.70;;;8.00;65.70;;;;;;6216501;23;20007;-68
2023/04/07 00:34:59;;;;;;;32.33;18.47;;;8.00;65.70;;;;;;6216282;23;20008;-68
2023/04/07 00:37:25;;;;;;;25.30;17.37;;;7.90;66.70;;;;;;6216286;23;20054;-68
2023/04/07 00:39:51;;;;;;;23.43;15.60;;;7.80;66.70;;;;;;6216435;23;20457;-68
2023/04/07 00:42:17;;;;;;;28.97;20.00;;;7.80;66.50;;;;;;6216152;23;20000;-68
2023/04/07 00:44:43;;;;;;;20.67;14.13;;;7.80;66.00;;;;;;6216346;23;20000;-68
2023/04/07 00:47:09;;;;;;;22.63;14.30;;;7.80;66.40;;;;;;6216160;23;20024;-67
2023/04/07 00:49:37;;;;;;;20.63;13.60;;;7.70;66.00;;;;;;6225146;22;20075;-68
2023/04/07 00:52:03;;;;;;;23.30;15.10;;;7.70;66.00;;;;;;6219776;23;20007;-68
2023/04/07 00:54:30;;;;;;;24.03;14.20;;;7.60;66.70;;;;;;6246498;23;20012;-68
2023/04/07 00:56:57;;;;;;;22.60;14.70;;;7.50;67.50;;;;;;6246722;23;20366;-67
2023/04/07 00:59:23;;;;;;;25.93;14.83;;;7.50;67.30;;;;;;6242800;23;20008;-67
2023/04/07 01:01:49;;;;;;;23.93;14.57;;;7.50;67.50;;;;;;6243217;23;20038;-67
2023/04/07 01:04:27;;;;;;;26.57;14.87;;;7.50;67.30;;;;;;6243859;23;19996;-68
2023/04/07 01:06:55;;;;;;;26.20;14.57;;;7.50;67.80;;;;;;6246011;23;20000;-67
2023/04/07 01:09:26;;;;;;;24.17;15.10;;;7.40;67.30;;;;;;6246370;23;20505;-69
2023/04/07 01:12:33;;;;;;;25.30;15.03;;;7.40;67.00;;;;;;6246495;23;20525;-68
2023/04/07 01:15:08;;;;;;;32.07;14.60;;;7.40;67.40;;;;;;6218995;23;20004;-68
2023/04/07 01:17:36;;;;;;;19.70;14.57;;;7.40;67.50;;;;;;6246290;23;20000;-67
2023/04/07 01:20:06;;;;;;;24.63;14.87;;;7.30;67.90;;;;;;6245899;23;20057;-67
2023/04/07 01:22:46;;;;;;;24.77;14.47;;;7.30;68.30;;;;;;6246367;23;20008;-68
2023/04/07 01:25:34;;;;;;;19.17;13.27;;;7.30;67.80;;;;;;6246138;23;20010;-68
2023/04/07 01:28:00;;;;;;;22.63;13.30;;;7.30;67.70;;;;;;6245808;23;20434;-67
2023/04/07 01:30:32;;;;;;;24.70;12.97;;;7.20;67.50;;;;;;6246235;23;20008;-67
2023/04/07 01:32:59;;;;;;;21.50;14.13;;;7.20;67.40;;;;;;6246206;23;20417;-69
2023/04/07 01:35:29;;;;;;;18.73;13.00;;;7.20;67.90;;;;;;6245888;23;20007;-67
2023/04/07 01:37:56;;;;;;;21.03;13.20;;;7.20;68.20;;;;;;6246231;23;20043;-68
2023/04/07 01:40:24;;;;;;;15.77;12.23;;;7.10;68.50;;;;;;6245896;23;20012;-68
2023/04/07 01:42:51;;;;;;;24.17;13.20;;;7.10;68.60;;;;;;6246207;23;19996;-68
2023/04/07 01:45:18;;;;;;;18.33;12.30;;;7.10;68.70;;;;;;6219550;23;20437;-67
2023/04/07 01:47:44;;;;;;;19.07;12.00;;;7.10;69.10;;;;;;6246446;23;20303;-67
2023/04/07 01:50:11;;;;;;;20.20;12.03;;;7.10;69.70;;;;;;6245832;22;20062;-68
2023/04/07 01:52:39;;;;;;;17.13;11.50;;;7.10;68.80;;;;;;6246021;23;20003;-67
2023/04/07 01:55:06;;;;;;;18.70;11.77;;;7.10;69.00;;;;;;6245634;23;20004;-68
2023/04/07 01:57:32;;;;;;;20.93;12.20;;;7.10;69.30;;;;;;6245394;23;20008;-67
2023/04/07 01:59:58;;;;;;;17.87;11.63;;;7.10;68.90;;;;;;6245767;23;20504;-67
2023/04/07 02:02:24;;;;;;;20.03;11.73;;;7.10;68.90;;;;;;6245480;23;19996;-69
2023/04/07 02:04:59;;;;;;;20.23;12.17;;;7.00;68.20;;;;;;6245749;23;20064;-68
2023/04/07 02:07:45;;;;;;;21.93;12.30;;;7.10;67.70;;;;;;6245917;23;20085;-68
2023/04/07 02:10:14;;;;;;;19.90;11.43;;;7.10;68.00;;;;;;6245764;23;20000;-67
2023/04/07 02:12:41;;;;;;;22.57;12.50;;;7.10;67.50;;;;;;6245730;23;19996;-68
2023/04/07 02:15:11;;;;;;;18.87;12.50;;;7.00;66.80;;;;;;6245332;23;20418;-67
2023/04/07 02:17:42;;;;;;;25.53;12.90;;;6.90;67.10;;;;;;6245483;23;20027;-68
2023/04/07 02:20:10;;;;;;;18.87;13.27;;;6.90;69.50;;;;;;6245696;23;20012;-67
2023/04/07 02:22:40;;;;;;;16.43;12.17;;;6.90;74.80;;;;;;6245918;23;20000;-67
2023/04/07 02:25:27;;;;;;;21.20;12.03;;;6.70;68.20;;;;;;6245486;23;20004;-68
2023/04/07 02:27:54;;;;;;;21.47;12.97;;;6.60;68.10;;;;;;6245488;23;20028;-67
2023/04/07 02:30:20;;;;;;;16.67;12.70;;;6.70;71.70;;;;;;6245601;23;20438;-67
2023/04/07 02:32:46;;;;;;;17.43;12.57;;;6.50;69.80;;;;;;6218635;23;20004;-68
2023/04/07 02:35:12;;;;;;;19.23;12.53;;;6.50;70.90;;;;;;6245467;23;20003;-68
2023/04/07 02:37:38;;;;;;;19.87;12.73;;;6.40;69.70;;;;;;6245610;23;20026;-67
2023/04/07 02:40:06;;;;;;;17.97;11.93;;;6.40;69.80;;;;;;6245359;23;20062;-67
2023/04/07 02:42:32;;;;;;;20.33;13.33;;;6.40;70.00;;;;;;6245506;23;19996;-68
2023/04/07 02:44:57;;;;;;;18.50;12.37;;;6.40;70.20;;;;;;6245394;23;20114;-67
2023/04/07 02:47:24;;;;;;;30.57;12.77;;;6.40;69.80;;;;;;6245697;23;20000;-67
2023/04/07 02:49:50;;;;;;;39.97;14.03;;;6.40;71.80;;;;;;6245283;22;20441;-67
2023/04/07 02:52:16;;;;;;;31.90;13.57;;;6.40;70.60;;;;;;6245519;23;20029;-68
2023/04/07 02:54:42;;;;;;;67.73;15.83;;;6.30;70.90;;;;;;6245619;23;20079;-68
2023/04/07 02:57:08;;;;;;;42.27;13.37;;;6.30;70.40;;;;;;6245688;23;20000;-67
2023/04/07 02:59:33;;;;;;;24.87;12.60;;;6.30;70.60;;;;;;6245348;23;20377;-67
2023/04/07 03:01:59;;;;;;;31.80;12.33;;;6.30;71.40;;;;;;6245542;23;20008;-67
2023/04/07 03:04:25;;;;;;;27.40;12.63;;;6.30;71.40;;;;;;6245524;23;20000;-67
2023/04/07 03:06:51;;;;;;;22.60;12.10;;;6.30;70.90;;;;;;6245473;23;20043;-67
2023/04/07 03:09:17;;;;;;;24.93;12.33;;;6.30;70.60;;;;;;6245343;23;20000;-68
2023/04/07 03:11:42;;;;;;;23.33;11.40;;;6.30;70.40;;;;;;6245412;23;19996;-67
2023/04/07 03:14:08;;;;;;;23.17;12.23;;;6.30;70.30;;;;;;6245279;23;20667;-67
2023/04/07 03:16:34;;;;;;;27.57;12.03;;;6.30;70.40;;;;;;6245208;23;20050;-67
2023/04/07 03:18:59;;;;;;;19.27;12.40;;;6.30;70.70;;;;;;6244934;23;20011;-67
2023/04/07 03:21:27;;;;;;;19.40;12.60;;;6.20;71.60;;;;;;6245472;23;20016;-68
2023/04/07 03:23:53;;;;;;;21.43;11.83;;;6.20;71.60;;;;;;6220245;23;20008;-67
2023/04/07 03:26:20;;;;;;;16.80;11.47;;;6.20;71.30;;;;;;6247084;23;20004;-68
2023/04/07 03:28:46;;;;;;;19.57;12.43;;;6.20;71.30;;;;;;6246830;23;20000;-68
2023/04/07 03:31:11;;;;;;;14.23;10.57;;;6.20;71.20;;;;;;6247239;23;20004;-68
2023/04/07 03:33:37;;;;;;;19.40;10.87;;;6.20;71.20;;;;;;6247282;23;20000;-67
2023/04/07 03:36:03;;;;;;;15.00;10.27;;;6.20;70.90;;;;;;6247228;23;20007;-68
2023/04/07 03:38:29;;;;;;;23.33;11.23;;;6.30;70.90;;;;;;6246980;23;20072;-67
2023/04/07 03:40:55;;;;;;;15.07;11.30;;;6.20;70.40;;;;;;6247378;23;20370;-67
2023/04/07 03:43:21;;;;;;;18.23;12.00;;;6.20;70.60;;;;;;6247260;23;19996;-68
2023/04/07 03:45:47;;;;;;;24.07;14.27;;;6.20;71.20;;;;;;6247174;23;20004;-67
2023/04/07 03:48:13;;;;;;;18.93;12.80;;;6.20;71.00;;;;;;6246815;23;20458;-68
2023/04/07 03:50:39;;;;;;;19.87;11.40;;;6.20;70.80;;;;;;6246854;22;20012;-67
2023/04/07 03:53:05;;;;;;;20.30;11.47;;;6.20;70.60;;;;;;6247060;23;20426;-67
2023/04/07 03:55:33;;;;;;;16.07;11.23;;;6.10;69.90;;;;;;6247150;23;20046;-67
2023/04/07 03:57:58;;;;;;;17.87;10.50;;;6.10;69.60;;;;;;6247176;23;20011;-67
2023/04/07 04:00:25;;;;;;;18.93;11.30;;;6.10;69.70;;;;;;6246788;23;20304;-68
2023/04/07 04:02:51;;;;;;;15.63;11.07;;;6.00;70.00;;;;;;6246697;23;20004;-67
2023/04/07 04:05:17;;;;;;;17.60;11.03;;;5.90;71.00;;;;;;6247067;23;20011;-68
2023/04/07 04:07:43;;;;;;;15.93;10.57;;;5.90;70.90;;;;;;6247088;23;20000;-67
2023/04/07 04:10:09;;;;;;;16.67;11.47;;;5.90;71.70;;;;;;6247252;23;20000;-67
2023/04/07 04:12:35;;;;;;;17.07;10.60;;;5.90;74.40;;;;;;6247270;23;20004;-67
2023/04/07 04:15:01;;;;;;;19.37;11.50;;;5.80;71.90;;;;;;6246981;23;20084;-68
2023/04/07 04:17:26;;;;;;;18.07;11.43;;;5.70;71.80;;;;;;6246736;23;20423;-67
2023/04/07 04:19:53;;;;;;;17.07;11.40;;;5.70;72.20;;;;;;6247332;23;20018;-68
2023/04/07 04:22:19;;;;;;;19.10;11.43;;;5.70;72.60;;;;;;6246679;23;20008;-67
2023/04/07 04:24:44;;;;;;;15.27;10.23;;;5.70;72.20;;;;;;6246919;23;20000;-67
2023/04/07 04:27:10;;;;;;;23.17;11.50;;;5.70;72.40;;;;;;6246961;23;20000;-67
2023/04/07 04:29:36;;;;;;;17.77;11.17;;;5.70;72.10;;;;;;6246893;23;20054;-67
2023/04/07 04:32:02;;;;;;;22.10;11.83;;;5.70;73.10;;;;;;6246974;23;20027;-67
2023/04/07 04:34:27;;;;;;;18.27;12.13;;;5.70;73.10;;;;;;6246182;23;20027;-68
2023/04/07 04:36:53;;;;;;;17.63;11.23;;;5.70;73.40;;;;;;6246865;23;20075;-67
2023/04/07 04:39:19;;;;;;;19.77;11.97;;;5.60;73.60;;;;;;6246568;23;20059;-67
2023/04/07 04:41:45;;;;;;;18.93;11.23;;;5.70;73.20;;;;;;6246707;23;20000;-67
2023/04/07 04:44:11;;;;;;;18.43;11.50;;;5.70;73.00;;;;;;6246080;23;20054;-67
2023/04/07 04:46:37;;;;;;;20.77;11.30;;;5.70;73.30;;;;;;6246769;23;20008;-67
2023/04/07 04:49:02;;;;;;;25.27;11.30;;;5.70;73.60;;;;;;6246352;22;19996;-68
2023/04/07 04:51:29;;;;;;;16.50;11.17;;;5.60;73.60;;;;;;6246371;23;20004;-67
2023/04/07 04:53:54;;;;;;;15.70;10.57;;;5.70;73.00;;;;;;6246525;23;19996;-67
2023/04/07 04:56:20;;;;;;;18.03;11.50;;;5.70;72.80;;;;;;6246158;23;20000;-67
2023/04/07 04:58:46;;;;;;;18.20;11.73;;;5.70;73.40;;;;;;6246453;23;20071;-67
2023/04/07 05:01:12;;;;;;;20.13;11.30;;;5.70;73.50;;;;;;6246106;23;20043;-67
2023/04/07 05:03:38;;;;;;;28.80;11.27;;;5.70;72.80;;;;;;6246694;23;19996;-68
2023/04/07 05:06:05;;;;;;;18.40;11.17;;;5.70;72.30;;;;;;6246393;23;20004;-68
2023/04/07 05:08:31;;;;;;;27.50;12.93;;;5.70;71.90;;;;;;6246144;23;19996;-68
2023/04/07 05:10:56;;;;;;;29.57;12.77;;;5.70;71.40;;;;;;6246257;23;20055;-67
2023/04/07 05:13:22;;;;;;;29.23;12.83;;;5.70;72.20;;;;;;6245914;23;20010;-67
2023/04/07 05:15:48;;;;;;;30.73;13.97;;;5.70;72.40;;;;;;6245997;23;20046;-68
2023/04/07 05:18:14;;;;;;;33.80;13.50;;;5.80;79.00;;;;;;6245769;23;20035;-67
2023/04/07 05:20:40;;;;;;;36.13;12.97;;;5.80;84.20;;;;;;6245995;23;20015;-67
2023/04/07 05:23:06;;;;;;;36.30;15.20;;;5.80;83.60;;;;;;6246281;23;20008;-67
2023/04/07 05:25:32;;;;;;;53.47;16.23;;;5.80;83.50;;;;;;6246202;23;20453;-68
2023/04/07 05:28:01;;;;;;;50.73;15.03;;;5.80;83.60;;;;;;6246301;23;19997;-67
2023/04/07 05:30:26;;;;;;;42.23;14.53;;;5.80;84.10;;;;;;6246158;23;20433;-67
2023/04/07 05:32:52;;;;;;;35.50;13.20;;;5.80;83.70;;;;;;6246173;23;20030;-67
2023/04/07 05:35:18;;;;;;;36.13;12.83;;;5.80;83.40;;;;;;6246067;23;20004;-68
2023/04/07 05:37:44;;;;;;;45.47;14.37;;;5.90;84.00;;;;;;6244845;23;20037;-67
2023/04/07 05:40:10;;;;;;;41.53;13.10;;;5.90;84.00;;;;;;6245428;23;20012;-67
2023/04/07 05:42:36;;;;;;;35.03;12.53;;;5.90;80.40;;;;;;6246186;23;20000;-67
2023/04/07 05:45:03;;;;;;;28.00;12.07;;;6.00;80.60;;;;;;6245574;23;20015;-68
2023/04/07 05:47:28;;;;;;;24.17;11.50;;;6.00;79.30;;;;;;6245872;23;20007;-68
2023/04/07 05:49:54;;;;;;;26.67;11.33;;;6.00;79.10;;;;;;6245806;22;20020;-67
2023/04/07 05:52:20;;;;;;;24.97;12.13;;;6.10;80.20;;;;;;6245984;23;20004;-67
2023/04/07 05:54:46;;;;;;;14.47;10.23;;;6.10;80.90;;;;;;6245617;23;20023;-68
2023/04/07 05:57:12;;;;;;;18.37;10.43;;;6.20;79.70;;;;;;6245477;23;20000;-67
2023/04/07 05:59:38;;;;;;;16.80;9.67;;;6.20;80.00;;;;;;6245707;23;20008;-67
2023/04/07 06:02:04;;;;;;;23.43;10.83;;;6.20;75.50;;;;;;6246069;23;20046;-67
2023/04/07 06:04:30;;;;;;;17.53;10.30;;;6.30;76.90;;;;;;6246022;23;20030;-68
2023/04/07 06:06:56;;;;;;;17.53;10.33;;;6.30;79.10;;;;;;6245998;23;20028;-68
2023/04/07 06:09:22;;;;;;;19.87;11.23;;;6.30;76.00;;;;;;6245622;23;20027;-68
2023/04/07 06:11:47;;;;;;;18.77;11.67;;;6.40;75.80;;;;;;6242800;23;20008;-68
2023/04/07 06:14:13;;;;;;;17.40;10.77;;;6.40;76.00;;;;;;6245136;23;20039;-69
2023/04/07 06:16:39;;;;;;;26.83;11.70;;;6.50;76.00;;;;;;6245574;23;20000;-68
2023/04/07 06:19:06;;;;;;;20.37;11.50;;;6.60;75.80;;;;;;6244992;23;20000;-69
2023/04/07 06:21:32;;;;;;;19.63;11.63;;;6.60;74.90;;;;;;6244401;23;20015;-68
2023/04/07 06:23:58;;;;;;;23.20;12.13;;;6.70;74.50;;;;;;6244651;23;20088;-68
2023/04/07 06:26:24;;;;;;;23.87;12.20;;;6.70;73.80;;;;;;6245226;23;20426;-68
2023/04/07 06:28:51;;;;;;;21.57;11.80;;;6.80;73.30;;;;;;6245159;23;20001;-68
2023/04/07 06:31:17;;;;;;;20.53;11.13;;;6.90;72.40;;;;;;6244949;23;20434;-68
2023/04/07 06:33:43;;;;;;;19.47;11.10;;;7.00;71.60;;;;;;6244955;23;20008;-69
2023/04/07 06:36:09;;;;;;;20.47;11.43;;;7.00;72.10;;;;;;6245179;23;20334;-68
2023/04/07 06:38:35;;;;;;;19.50;11.10;;;7.00;72.10;;;;;;6244644;23;20046;-68
2023/04/07 06:41:01;;;;;;;25.17;11.10;;;7.20;74.40;;;;;;6244732;23;20012;-68
2023/04/07 06:43:26;;;;;;;17.40;11.60;;;7.30;78.20;;;;;;6244709;23;19996;-68
2023/04/07 06:45:52;;;;;;;18.43;10.57;;;7.20;71.20;;;;;;6244573;23;20003;-67
2023/04/07 06:48:18;;;;;;;21.93;11.97;;;7.20;70.50;;;;;;6245187;23;19996;-68
2023/04/07 06:50:48;;;;;;;21.50;10.63;;;7.30;70.90;;;;;;6244576;22;20015;-69
2023/04/07 06:53:14;;;;;;;20.57;10.50;;;7.40;71.20;;;;;;6244716;23;20004;-68
2023/04/07 06:55:40;;;;;;;20.43;10.83;;;7.40;70.70;;;;;;6244949;23;20446;-69
2023/04/07 06:58:06;;;;;;;19.33;10.37;;;7.50;70.30;;;;;;6245163;23;20016;-70
2023/04/07 07:00:32;;;;;;;16.10;9.80;;;7.50;69.60;;;;;;6244457;23;20019;-68
2023/04/07 07:02:57;;;;;;;17.70;10.13;;;7.60;69.20;;;;;;6218148;23;20007;-68
2023/04/07 07:05:23;;;;;;;13.73;9.13;;;7.70;69.30;;;;;;6244137;23;20008;-66
2023/04/07 07:07:50;;;;;;;17.00;9.67;;;7.80;68.90;;;;;;6243799;23;20000;-68
2023/04/07 07:10:16;;;;;;;21.90;9.07;;;7.80;68.80;;;;;;6244678;23;20035;-69
2023/04/07 07:12:42;;;;;;;15.47;8.90;;;7.90;68.40;;;;;;6244561;23;20000;-68
2023/04/07 07:15:08;;;;;;;14.87;8.93;;;8.00;67.60;;;;;;6244555;23;20004;-77
2023/04/07 07:17:34;;;;;;;16.93;9.10;;;8.10;67.40;;;;;;6244304;23;20062;-68
2023/04/07 07:20:00;;;;;;;16.43;8.93;;;8.10;67.20;;;;;;6243881;23;20341;-73
2023/04/07 07:22:26;;;;;;;15.43;8.87;;;8.20;66.60;;;;;;6244162;23;20000;-69
2023/04/07 07:24:52;;;;;;;17.10;10.40;;;8.20;66.50;;;;;;6244232;23;20011;-69
2023/04/07 07:27:17;;;;;;;17.33;10.10;;;8.30;66.00;;;;;;6244343;23;20377;-68
2023/04/07 07:29:43;;;;;;;15.50;9.63;;;8.40;66.00;;;;;;6244000;23;20000;-72
2023/04/07 07:32:09;;;;;;;17.77;9.83;;;8.40;65.80;;;;;;6243646;23;20000;-70
2023/04/07 07:34:34;;;;;;;19.37;10.23;;;8.50;65.50;;;;;;6244373;23;20015;-70
2023/04/07 07:37:00;;;;;;;13.20;9.27;;;8.50;65.40;;;;;;6243993;23;19996;-68
2023/04/07 07:39:26;;;;;;;18.27;9.87;;;8.60;65.30;;;;;;6244093;23;20012;-68
2023/04/07 07:41:52;;;;;;;16.47;9.93;;;8.60;65.10;;;;;;6243501;23;20015;-69
2023/04/07 07:44:21;;;;;;;18.60;10.17;;;8.70;64.80;;;;;;6243133;23;20323;-75
2023/04/07 07:46:49;;;;;;;16.70;9.43;;;8.80;64.70;;;;;;6242916;23;20326;-76
2023/04/07 07:49:15;;;;;;;14.73;9.57;;;8.90;64.50;;;;;;6242909;22;20047;-70
2023/04/07 07:51:41;;;;;;;15.03;9.93;;;8.90;64.20;;;;;;6215832;23;20434;-67
2023/04/07 07:54:08;;;;;;;15.07;9.43;;;9.00;64.50;;;;;;6244573;23;20026;-68
2023/04/07 07:56:34;;;;;;;17.53;10.77;;;9.10;64.00;;;;;;6244642;23;20496;-68
2023/04/07 07:59:00;;;;;;;20.10;9.57;;;9.20;63.20;;;;;;6244653;23;20485;-67
2023/04/07 08:01:26;;;;;;;16.17;9.87;;;9.20;63.10;;;;;;6244236;23;20019;-68
2023/04/07 08:03:51;;;;;;;21.53;9.83;;;9.30;63.20;;;;;;6244388;23;20000;-67
2023/04/07 08:06:17;;;;;;;14.83;9.97;;;9.30;63.10;;;;;;6244966;23;20075;-67
2023/04/07 08:08:43;;;;;;;19.37;10.07;;;9.40;63.10;;;;;;6218346;23;20026;-70
2023/04/07 08:11:09;;;;;;;18.60;10.57;;;9.50;63.10;;;;;;6246821;23;20000;-66
2023/04/07 08:13:35;;;;;;;20.77;10.77;;;9.50;62.80;;;;;;6248238;23;20008;-67
2023/04/07 08:16:01;;;;;;;16.83;11.20;;;9.60;62.90;;;;;;6248021;23;19996;-70
2023/04/07 08:18:27;;;;;;;17.70;11.00;;;9.60;62.40;;;;;;6246603;23;20299;-70
2023/04/07 08:20:52;;;;;;;26.00;11.63;;;9.70;63.00;;;;;;6248476;23;20016;-67
2023/04/07 08:23:18;;;;;;;25.97;12.17;;;9.80;62.60;;;;;;6248327;23;20000;-67
2023/04/07 08:25:44;;;;;;;21.10;12.23;;;9.90;62.50;;;;;;6247244;23;20008;-68
2023/04/07 08:28:10;;;;;;;25.60;12.57;;;10.00;62.00;;;;;;6246988;23;20008;-67
2023/04/07 08:30:36;;;;;;;24.57;12.40;;;10.10;64.90;;;;;;6246598;23;20079;-67
2023/04/07 08:33:04;;;;;;;21.87;13.50;;;10.10;62.00;;;;;;6246469;23;20000;-68
2023/04/07 08:35:30;;;;;;;21.93;13.20;;;10.20;61.20;;;;;;6246607;23;20393;-67
2023/04/07 08:37:55;;;;;;;21.77;12.63;;;10.30;60.80;;;;;;6245883;23;19996;-67
2023/04/07 08:40:21;;;;;;;19.97;11.90;;;10.40;60.60;;;;;;6246067;23;20012;-67
2023/04/07 08:42:48;;;;;;;23.40;12.60;;;10.50;60.90;;;;;;6246151;23;20004;-67
2023/04/07 08:45:16;;;;;;;18.70;11.57;;;10.70;64.50;;;;;;6246269;23;20007;-67
2023/04/07 08:47:43;;;;;;;22.20;11.90;;;10.70;62.60;;;;;;6246097;23;19996;-67
2023/04/07 08:50:10;;;;;;;20.17;11.93;;;10.80;62.40;;;;;;6246085;23;20016;-67
2023/04/07 08:52:47;;;;;;;19.90;12.07;;;10.90;62.50;;;;;;6246527;23;20028;-68
2023/04/07 08:55:14;;;;;;;17.83;11.53;;;11.00;66.70;;;;;;6246468;23;20028;-67
2023/04/07 08:57:41;;;;;;;21.30;12.47;;;11.10;64.00;;;;;;6244887;23;20007;-68
2023/04/07 09:00:08;;;;;;;23.77;12.43;;;11.20;63.00;;;;;;6246114;23;20008;-67
2023/04/07 09:02:40;;;;;;;19.87;11.70;;;11.20;62.90;;;;;;6246155;23;20000;-67
2023/04/07 09:05:07;;;;;;;22.90;12.65;;;11.30;62.30;;;;;;6246587;23;20008;-67
2023/04/07 09:07:35;;;;;;;20.85;12.30;;;11.40;61.40;;;;;;6246175;23;20003;-67
2023/04/07 09:10:02;;;;;;;23.48;13.23;;;11.50;61.30;;;;;;6246399;23;20003;-67
2023/04/07 09:12:29;;;;;;;26.65;13.05;;;11.70;62.60;;;;;;6246090;23;20010;-67
2023/04/07 09:14:55;;;;;;;24.52;13.15;;;11.60;60.60;;;;;;6246330;23;20433;-68
2023/04/07 09:17:21;;;;;;;21.05;13.35;;;11.70;60.10;;;;;;6246275;23;20000;-67
2023/04/07 09:19:47;;;;;;;27.50;13.38;;;11.80;59.90;;;;;;6245872;23;20430;-68
2023/04/07 09:22:14;;;;;;;27.52;13.77;;;11.90;59.50;;;;;;6246447;23;20004;-67
2023/04/07 09:24:41;;;;;;;20.60;13.20;;;11.90;57.30;;;;;;6219080;23;20074;-67
2023/04/07 09:27:16;;;;;;;24.35;14.05;;;11.90;57.30;;;;;;6246230;23;20000;-67
2023/04/07 09:29:43;;;;;;;22.50;13.77;;;11.90;57.20;;;;;;6245467;23;19996;-67
2023/04/07 09:32:11;;;;;;;23.95;14.23;;;12.00;57.30;;;;;;6244700;23;20449;-67
2023/04/07 09:34:40;;;;;;;23.63;13.90;;;12.20;60.40;;;;;;6244609;23;20007;-66
2023/04/07 09:37:10;;;;;;;19.15;13.00;;;12.20;57.50;;;;;;6244836;23;20283;-67
2023/04/07 09:39:56;;;;;;;24.83;13.18;;;12.30;57.40;;;;;;6244092;23;20360;-67
2023/04/07 09:42:22;;;;;;;22.67;13.77;;;12.40;56.30;;;;;;6217265;23;20000;-67
2023/04/07 09:44:47;;;;;;;24.50;14.15;;;12.40;55.40;;;;;;6243998;23;20027;-68
2023/04/07 09:47:13;;;;;;;19.65;14.05;;;12.50;54.40;;;;;;6244034;23;20031;-67
2023/04/07 09:49:53;;;;;;;24.63;13.63;;;12.60;54.20;;;;;;6243684;23;20015;-68
2023/04/07 09:52:24;;;;;;;19.95;13.80;;;12.70;54.90;;;;;;6243841;23;20038;-68
2023/04/07 09:54:50;;;;;;;25.20;13.57;;;12.80;54.70;;;;;;6244362;23;20322;-68
2023/04/07 09:57:17;;;;;;;19.98;12.82;;;12.90;55.30;;;;;;6244063;23;20004;-67
2023/04/07 09:59:44;;;;;;;18.38;13.15;;;13.00;55.60;;;;;;6244455;23;20004;-67
2023/04/07 10:02:11;;;;;;;22.00;13.13;;;13.10;55.20;;;;;;6244307;23;20032;-67
2023/04/07 10:04:37;;;;;;;20.52;13.00;;;13.20;54.70;;;;;;6244556;23;20407;-67
2023/04/07 10:07:05;;;;;;;19.75;13.02;;;13.30;55.20;;;;;;6245225;23;20046;-67
2023/04/07 10:09:31;;;;;;;22.08;14.10;;;13.50;55.40;;;;;;6245348;23;20076;-68
2023/04/07 10:11:58;;;;;;;29.55;13.75;;;13.70;72.30;;;;;;6245668;23;20000;-67
2023/04/07 10:14:30;;;;;;;20.30;13.25;;;13.80;75.70;;;;;;6245162;23;20373;-67
2023/04/07 10:16:56;;;;;;;21.27;14.63;;;13.90;59.70;;;;;;6245676;23;19996;-67
2023/04/07 10:19:23;;;;;;;18.75;12.95;;;13.90;51.40;;;;;;6245533;23;20434;-67
2023/04/07 10:21:54;;;;;;;19.45;14.02;;;14.10;58.30;;;;;;6245450;23;20322;-67
2023/04/07 10:24:35;;;;;;;16.95;13.75;;;14.10;62.90;;;;;;6245636;23;20073;-68
2023/04/07 10:27:06;;;;;;;18.50;14.73;;;14.10;50.80;;;;;;6245602;23;20330;-67
2023/04/07 10:29:40;;;;;;;24.42;14.43;;;14.20;50.80;;;;;;6245740;23;20008;-67
2023/04/07 10:32:06;;;;;;;21.17;16.33;;;14.20;50.30;;;;;;6245496;23;20011;-67
2023/04/07 10:34:52;;;;;;;30.65;15.38;;;14.20;49.70;;;;;;6245937;23;20300;-67
2023/04/07 10:37:20;;;;;;;19.27;14.23;;;14.20;50.50;;;;;;6245789;23;20012;-67
2023/04/07 10:39:46;;;;;;;23.88;14.75;;;14.20;50.40;;;;;;6245323;23;20427;-67
2023/04/07 10:42:40;;;;;;;21.70;14.90;;;14.20;50.60;;;;;;6245601;23;20007;-67
2023/04/07 10:45:08;;;;;;;22.35;13.90;;;14.30;51.30;;;;;;6245716;23;20004;-68
2023/04/07 10:47:35;;;;;;;18.73;13.10;;;14.30;51.80;;;;;;6245372;23;20030;-67
2023/04/07 10:50:21;;;;;;;25.02;13.82;;;14.30;53.20;;;;;;6244706;22;20446;-68
2023/04/07 10:53:13;;;;;;;15.63;12.13;;;14.30;52.40;;;;;;6245139;23;19996;-66
2023/04/07 10:55:39;;;;;;;20.30;12.30;;;14.30;54.80;;;;;;6244929;23;20462;-68
2023/04/07 10:58:15;;;;;;;18.42;12.55;;;14.30;55.70;;;;;;6244534;23;20034;-68
2023/04/07 11:00:41;;;;;;;19.35;13.27;;;14.30;55.80;;;;;;6244615;23;20194;-67
2023/04/07 11:03:13;;;;;;;20.52;12.85;;;14.30;55.80;;;;;;6243891;23;20075;-67
2023/04/07 11:05:41;;;;;;;21.15;13.80;;;14.30;55.60;;;;;;6244072;23;20046;-67
2023/04/07 11:08:07;;;;;;;18.63;12.77;;;14.30;56.10;;;;;;6243701;23;19992;-68
2023/04/07 11:10:34;;;;;;;15.52;12.57;;;14.30;55.50;;;;;;6244343;23;20008;-68
2023/04/07 11:13:01;;;;;;;18.23;12.75;;;14.30;56.70;;;;;;6242911;23;20048;-67
2023/04/07 11:15:27;;;;;;;20.98;13.18;;;14.20;57.40;;;;;;6240237;23;20036;-67
2023/04/07 11:18:18;;;;;;;20.45;13.18;;;14.20;56.90;;;;;;6240682;23;20357;-68
2023/04/07 11:20:52;;;;;;;19.88;14.18;;;14.20;57.10;;;;;;6243552;23;20087;-67
2023/04/07 11:23:20;;;;;;;18.55;14.32;;;14.10;57.60;;;;;;6243214;23;20083;-68
2023/04/07 11:25:48;;;;;;;20.02;13.95;;;14.20;56.90;;;;;;6243210;23;20001;-67
2023/04/07 11:28:14;;;;;;;21.45;13.13;;;14.20;57.30;;;;;;6245031;23;20007;-67
2023/04/07 11:30:50;;;;;;;19.75;13.27;;;14.30;56.80;;;;;;6245093;23;20083;-67
2023/04/07 11:33:22;;;;;;;19.02;12.50;;;14.30;55.50;;;;;;6242171;23;20645;-67
2023/04/07 11:35:50;;;;;;;17.77;13.55;;;14.40;55.90;;;;;;6239571;23;20032;-68
2023/04/07 11:38:16;;;;;;;22.00;14.77;;;14.40;54.20;;;;;;6242531;23;20019;-68
2023/04/07 11:40:42;;;;;;;18.17;12.93;;;14.50;56.20;;;;;;6245002;23;20019;-66
2023/04/07 11:43:21;;;;;;;17.73;13.65;;;14.50;55.20;;;;;;6245369;23;20001;-66
2023/04/07 11:46:12;;;;;;;17.20;12.68;;;14.70;69.40;;;;;;6247196;23;20411;-66
2023/04/07 11:48:40;;;;;;;18.52;13.38;;;14.60;53.50;;;;;;6247139;23;20013;-67
2023/04/07 11:51:15;;;;;;;18.52;13.70;;;14.60;52.70;;;;;;6246619;22;20431;-66
2023/04/07 11:53:41;;;;;;;17.95;13.10;;;14.60;52.10;;;;;;6246362;23;20011;-67
2023/04/07 11:56:09;;;;;;;20.08;13.20;;;14.60;52.20;;;;;;6246360;23;20004;-66
2023/04/07 11:58:38;;;;;;;21.40;13.85;;;14.60;51.30;;;;;;6246628;23;20008;-66
2023/04/07 12:01:07;;;;;;;21.88;12.90;;;14.60;50.10;;;;;;6246164;23;20048;-67
2023/04/07 12:03:36;;;;;;;19.45;12.38;;;14.60;50.20;;;;;;6246475;23;20015;-67
2023/04/07 12:06:03;;;;;;;15.65;12.05;;;14.60;50.40;;;;;;6246342;23;20080;-67
2023/04/07 12:08:39;;;;;;;20.17;12.40;;;14.60;49.40;;;;;;6246904;23;20000;-67
2023/04/07 12:11:05;;;;;;;16.05;12.98;;;14.60;50.30;;;;;;6247313;23;20075;-67
2023/04/07 12:13:31;;;;;;;22.65;12.75;;;14.60;50.10;;;;;;6247222;23;20706;-66
2023/04/07 12:16:00;;;;;;;15.50;12.20;;;14.70;49.90;;;;;;6247026;23;20027;-67
2023/04/07 12:18:27;;;;;;;21.08;12.20;;;14.70;48.90;;;;;;6246352;23;20445;-67
2023/04/07 12:20:53;;;;;;;20.73;12.65;;;14.70;48.80;;;;;;6245497;23;20430;-67
2023/04/07 12:23:19;;;;;;;16.48;12.30;;;14.70;50.20;;;;;;6243279;23;20007;-67
2023/04/07 12:25:44;;;;;;;16.75;12.75;;;14.70;49.00;;;;;;6243794;23;20054;-67
2023/04/07 12:28:10;;;;;;;16.38;11.93;;;14.70;50.40;;;;;;6246588;23;20023;-67
2023/04/07 12:30:36;;;;;;;20.67;13.25;;;14.70;51.00;;;;;;6246776;23;20008;-67
2023/04/07 12:33:02;;;;;;;27.58;13.73;;;14.70;49.90;;;;;;6246773;23;19996;-67
2023/04/07 12:35:29;;;;;;;17.05;12.32;;;14.70;51.10;;;;;;6245944;23;20476;-67